Aviation Digital Data Service (ADDS)

Output produced by TAFs form (1132 UTC 19 January 2018)
found at http://www.aviationweather.gov/adds/tafs/
 
RJOH 191100Z VRB02KT 9999 FEW040 BKN050 06/03 Q1019
TAF RJOH 191108Z 1912/2018 18005KT 9999 FEW030 BKN050
       
RJOB 191100Z VRB01KT 9000 FEW025 SCT050 04/02 Q1018
TAF RJOB 191108Z 1912/2018 32004KT 9000 FEW025 SCT045
       
RJOA 191100Z VRB02KT 8000 FEW020 BKN030 07/02 Q1018
TAF RJOA 191105Z 1912/2018 32004KT 8000 FEW015 BKN035
       
RJOT 191100Z 15007KT 9999 FEW025 SCT050 05/03 Q1018
TAF RJOT 191105Z 1912/2018 15006KT 8000 FEW020 BKN040 
     BECMG 2000/2003 28008KT 
     BECMG 2009/2012 15006KT
       
RJOC 191100Z VRB01KT 9999 FEW030 BKN040 BKN050 07/04 Q1018
TAF RJOC 191107Z 1912/2018 18005KT 9999 FEW025 BKN045
       
RJFR 191100Z 21006KT 9999 FEW030 08/04 Q1019
TAF RJFR 191107Z 1912/2018 23003KT 8000 FEW030 
     BECMG 1918/1920 35005KT
       
RJFO 191100Z 27004KT 7000 FEW050 07/03 Q1018
TAF RJFO 191106Z 1912/2018 29005KT 8000 FEW030
       
RJFU 191100Z 13003KT CAVOK 07/04 Q1019
TAF RJFU 191111Z 1912/2018 14004KT 9000 FEW045 
     BECMG 2000/2003 32007KT 
     BECMG 2012/2015 14004KT
       
RJFT 191100Z 06002KT CAVOK 05/03 Q1019
TAF RJFT 191107Z 1912/2018 07004KT 8000 FEW030 
     TEMPO 1918/2000 4000 BR 
     BECMG 2000/2003 28005KT 
     BECMG 2009/2012 07004KT
       
RJFM 191100Z 29006KT 9999 FEW030 10/03 Q1018
TAF RJFM 191105Z 1912/2018 27008KT 9999 FEW030 
     BECMG 2000/2003 07005KT 
     BECMG 2009/2012 28007KT
       
RJFK 191100Z 31007KT CAVOK 06/00 Q1018 RMK A3008
TAF RJFK 191105Z 1912/2018 34007KT 9999 FEW015 
     BECMG 2000/2003 23005KT 
     BECMG 2006/2009 34007KT
       
ROIG 191100Z 04019KT 9999 FEW011 BKN021 BKN050 20/19 Q1017
TAF ROIG 191107Z 1912/2018 04014KT 9999 FEW008 BKN015 
     TEMPO 1912/1918 FEW006 BKN008